createdAt,value
2022-11-05T00:01:59.206Z,1.88
2022-11-05T00:07:26.876Z,1.55
2022-11-05T00:12:47.719Z,1.60
2022-11-05T00:17:49.700Z,1.92
2022-11-05T00:23:10.461Z,1.50
2022-11-05T00:28:12.446Z,1.80
2022-11-05T00:33:14.942Z,1.73
2022-11-05T00:38:16.869Z,2.05
2022-11-05T00:43:37.673Z,2.47
2022-11-05T00:48:58.210Z,2.13
2022-11-05T00:54:00.782Z,1.80
2022-11-05T00:59:03.017Z,1.75
2022-11-05T01:04:05.403Z,1.77
2022-11-05T01:09:07.367Z,1.90
2022-11-05T01:14:12.150Z,2.20
2022-11-05T01:19:14.075Z,2.85
2022-11-05T01:24:15.963Z,2.05
2022-11-05T01:29:18.049Z,2.70
2022-11-05T01:34:19.899Z,2.33
2022-11-05T01:39:21.786Z,3.38
2022-11-05T01:44:56.180Z,2.70
2022-11-05T01:50:00.590Z,2.80
2022-11-05T01:55:03.571Z,2.78
2022-11-05T02:00:06.683Z,2.90
2022-11-05T02:05:15.410Z,2.67
2022-11-05T02:10:20.419Z,2.30
2022-11-05T02:15:36.817Z,2.60
2022-11-05T02:20:53.512Z,2.10
2022-11-05T02:26:23.114Z,2.50
2022-11-05T02:31:36.934Z,2.47
2022-11-05T02:36:55.717Z,2.35
2022-11-05T02:42:15.466Z,2.10
2022-11-05T02:47:43.427Z,2.25
2022-11-05T02:53:07.627Z,2.65
2022-11-05T02:58:09.746Z,2.05
2022-11-05T03:03:30.169Z,2.25
2022-11-05T03:08:47.234Z,2.33
2022-11-05T03:14:16.476Z,1.73
2022-11-05T03:19:28.032Z,1.70
2022-11-05T03:24:33.552Z,1.88
2022-11-05T03:29:39.611Z,2.13
2022-11-05T03:34:50.482Z,2.13
2022-11-05T03:39:55.321Z,2.28
2022-11-05T03:44:59.184Z,2.20
2022-11-05T03:50:22.173Z,1.63
2022-11-05T03:55:27.928Z,1.67
2022-11-05T04:00:29.910Z,1.95
2022-11-05T04:05:31.987Z,1.88
2022-11-05T04:10:52.584Z,2.03
2022-11-05T04:16:14.517Z,1.95
2022-11-05T04:21:35.581Z,1.63
2022-11-05T04:26:40.079Z,1.58
2022-11-05T04:31:42.161Z,2.20
2022-11-05T04:36:43.951Z,1.70
2022-11-05T04:41:48.309Z,1.58
2022-11-05T04:46:50.146Z,1.70
2022-11-05T04:51:51.943Z,2.03
2022-11-05T04:56:53.775Z,1.60
2022-11-05T05:01:55.834Z,1.77
2022-11-05T05:06:57.749Z,1.85
2022-11-05T05:11:59.635Z,2.00
2022-11-05T05:17:01.511Z,1.48
2022-11-05T05:22:03.456Z,1.40
2022-11-05T05:27:05.411Z,1.50
2022-11-05T05:32:07.506Z,1.65
2022-11-05T05:37:10.614Z,1.60
2022-11-05T05:42:13.157Z,1.60
2022-11-05T05:47:15.016Z,1.42
2022-11-05T05:52:16.869Z,1.30
2022-11-05T05:57:18.730Z,1.58
2022-11-05T06:02:20.786Z,1.25
2022-11-05T06:07:22.880Z,1.30
2022-11-05T06:12:24.679Z,1.33
2022-11-05T06:17:26.525Z,1.25
2022-11-05T06:22:28.418Z,1.33
2022-11-05T06:27:30.336Z,1.35
2022-11-05T06:32:32.247Z,1.27
2022-11-05T06:37:34.263Z,1.38
2022-11-05T06:42:36.246Z,1.33
2022-11-05T06:47:38.358Z,1.38
2022-11-05T06:52:41.381Z,1.27
2022-11-05T06:57:43.331Z,1.25
2022-11-05T07:02:45.707Z,1.27
2022-11-05T07:07:47.670Z,1.60
2022-11-05T07:12:49.506Z,1.70
2022-11-05T07:17:51.344Z,1.23
2022-11-05T07:23:01.776Z,1.20
2022-11-05T07:28:04.518Z,1.85
2022-11-05T07:33:06.608Z,1.63
2022-11-05T07:38:08.651Z,1.23
2022-11-05T07:43:10.797Z,1.35
2022-11-05T07:48:12.760Z,1.30
2022-11-05T07:53:15.204Z,1.27
2022-11-05T07:58:27.065Z,1.34
2022-11-05T08:03:29.222Z,1.13
2022-11-05T08:08:31.251Z,1.23
2022-11-05T08:13:33.946Z,1.88
2022-11-05T08:18:36.111Z,1.77
2022-11-05T08:23:39.428Z,1.55
2022-11-05T08:28:41.284Z,1.63
2022-11-05T08:33:43.151Z,1.85
2022-11-05T08:38:45.051Z,3.00
2022-11-05T08:43:46.931Z,1.50
2022-11-05T08:48:48.864Z,1.77
2022-11-05T08:53:50.722Z,1.40
2022-11-05T08:58:52.687Z,1.67
2022-11-05T09:03:54.601Z,1.85
2022-11-05T09:08:56.777Z,1.98
2022-11-05T09:13:58.633Z,2.00
2022-11-05T09:19:02.374Z,1.70
2022-11-05T09:24:04.636Z,1.70
2022-11-05T09:29:09.235Z,1.85
2022-11-05T09:34:15.490Z,1.50
2022-11-05T09:39:17.355Z,1.73
2022-11-05T09:44:23.067Z,1.70
2022-11-05T09:49:29.416Z,1.73
2022-11-05T09:54:32.155Z,2.20
2022-11-05T09:59:40.871Z,1.60
2022-11-05T10:04:50.141Z,1.60
2022-11-05T10:09:56.054Z,1.38
2022-11-05T10:15:13.263Z,1.58
2022-11-05T10:20:23.728Z,1.88
2022-11-05T10:25:30.223Z,1.90
2022-11-05T10:30:32.377Z,1.52
2022-11-05T10:35:36.163Z,1.58
2022-11-05T10:41:04.381Z,1.30
2022-11-05T10:46:06.415Z,1.50
2022-11-05T10:51:08.940Z,1.20
2022-11-05T10:56:31.390Z,1.70
2022-11-05T11:01:33.579Z,7.85
2022-11-05T11:06:38.071Z,13.68
2022-11-05T11:11:42.666Z,8.90
2022-11-05T11:16:46.634Z,6.28
2022-11-05T11:22:09.504Z,1.45
2022-11-05T11:27:16.568Z,5.65
2022-11-05T11:32:20.616Z,5.72
2022-11-05T11:37:34.390Z,7.63
2022-11-05T11:42:40.477Z,4.40
2022-11-05T11:47:46.357Z,1.83
2022-11-05T11:52:48.247Z,1.27
2022-11-05T11:57:53.736Z,1.33
2022-11-05T12:03:17.152Z,0.90
2022-11-05T12:08:36.180Z,1.45
2022-11-05T12:13:52.830Z,1.15
2022-11-05T12:19:06.817Z,0.90
2022-11-05T12:24:24.150Z,1.13
2022-11-05T12:34:47.752Z,1.13
2022-11-05T12:39:52.258Z,1.15
2022-11-05T12:44:54.097Z,1.20
2022-11-05T12:50:17.024Z,1.10
2022-11-05T12:55:34.011Z,0.82
2022-11-05T13:00:37.263Z,1.20
2022-11-05T13:05:46.436Z,0.80
2022-11-05T13:11:12.163Z,1.05
2022-11-05T13:16:23.030Z,1.25
2022-11-05T13:21:28.599Z,0.93
2022-11-05T13:26:50.534Z,1.55
2022-11-05T13:31:58.891Z,1.08
2022-11-05T13:37:22.665Z,1.50
2022-11-05T13:42:39.475Z,1.45
2022-11-05T13:47:59.620Z,0.80
2022-11-05T13:53:13.740Z,0.90
2022-11-05T13:58:31.053Z,0.88
2022-11-05T14:03:33.166Z,0.80
2022-11-05T14:08:43.364Z,1.08
2022-11-05T14:13:46.003Z,1.00
2022-11-05T14:19:14.931Z,1.00
2022-11-05T14:24:23.024Z,2.88
2022-11-05T14:29:25.103Z,1.42
2022-11-05T14:34:47.379Z,1.00
2022-11-05T14:39:49.423Z,0.90
2022-11-05T14:45:20.562Z,0.93
2022-11-05T14:50:28.006Z,1.00
2022-11-05T14:55:33.490Z,1.35
2022-11-05T15:00:36.887Z,1.02
2022-11-05T15:05:50.379Z,2.05
2022-11-05T15:10:54.883Z,2.45
2022-11-05T15:15:56.958Z,1.40
2022-11-05T15:21:01.492Z,1.23
2022-11-05T15:26:06.269Z,1.17
2022-11-05T15:31:13.998Z,1.15
2022-11-05T15:36:29.809Z,1.25
2022-11-05T15:41:34.498Z,0.82
2022-11-05T15:46:36.824Z,1.05
2022-11-05T15:51:38.785Z,1.05
2022-11-05T15:56:48.418Z,0.90
2022-11-05T16:01:54.121Z,1.08
2022-11-05T16:07:10.423Z,1.00
2022-11-05T16:12:18.847Z,1.20
2022-11-05T16:17:23.368Z,1.30
2022-11-05T16:22:25.705Z,2.22
2022-11-05T16:27:27.876Z,2.97
2022-11-05T16:32:31.563Z,2.22
2022-11-05T16:37:41.359Z,2.50
2022-11-05T16:42:43.950Z,1.50
2022-11-05T16:47:46.584Z,1.75
2022-11-05T16:52:48.673Z,1.40
2022-11-05T16:57:53.656Z,1.20
2022-11-05T17:02:55.860Z,1.20
2022-11-05T17:07:58.346Z,1.17
2022-11-05T17:13:00.379Z,1.10
2022-11-05T17:18:03.637Z,1.10
2022-11-05T17:23:06.250Z,1.30
2022-11-05T17:28:09.353Z,1.10
2022-11-05T17:33:12.825Z,1.02
2022-11-05T17:38:15.262Z,1.00
2022-11-05T17:43:17.693Z,1.00
2022-11-05T17:48:20.615Z,1.10
2022-11-05T17:53:22.692Z,2.53
2022-11-05T17:58:24.762Z,2.55
2022-11-05T18:03:26.745Z,5.88
2022-11-05T18:08:28.903Z,5.93
2022-11-05T18:13:30.794Z,7.10
2022-11-05T18:18:32.813Z,6.70
2022-11-05T18:23:34.662Z,6.82
2022-11-05T18:28:36.862Z,8.38
2022-11-05T18:33:38.697Z,10.77
2022-11-05T18:38:40.823Z,10.05
2022-11-05T18:43:43.094Z,9.65
2022-11-05T18:48:45.223Z,7.78
2022-11-05T18:53:47.351Z,6.00
2022-11-05T18:58:50.580Z,4.85
2022-11-05T19:03:54.590Z,6.32
2022-11-05T19:08:57.368Z,4.88
2022-11-05T19:14:00.400Z,3.78
2022-11-05T19:19:04.302Z,3.63
2022-11-05T19:24:06.487Z,3.22
2022-11-05T19:29:08.406Z,2.55
2022-11-05T19:34:10.760Z,3.97
2022-11-05T19:39:14.702Z,9.25
2022-11-05T19:44:16.637Z,23.55
2022-11-05T19:49:18.579Z,5.82
2022-11-05T19:54:20.849Z,4.30
2022-11-05T19:59:22.860Z,2.20
2022-11-05T20:04:24.967Z,2.50
2022-11-05T20:09:26.877Z,2.55
2022-11-05T20:14:29.779Z,4.80
2022-11-05T20:19:31.898Z,3.47
2022-11-05T20:24:33.832Z,3.50
2022-11-05T20:29:36.098Z,3.65
2022-11-05T20:34:38.581Z,4.13
2022-11-05T20:39:41.084Z,3.15
2022-11-05T20:44:43.834Z,2.46
2022-11-05T20:49:45.757Z,2.70
2022-11-05T20:54:48.271Z,2.88
2022-11-05T20:59:50.247Z,2.78
2022-11-05T21:04:52.237Z,3.78
2022-11-05T21:09:54.122Z,3.60
2022-11-05T21:14:56.353Z,3.72
2022-11-05T21:19:58.350Z,3.95
2022-11-05T21:25:00.656Z,3.45
2022-11-05T21:30:03.638Z,3.95
2022-11-05T21:35:05.823Z,5.50
2022-11-05T21:40:08.503Z,7.63
2022-11-05T21:45:11.124Z,8.10
2022-11-05T21:50:17.076Z,8.38
2022-11-05T21:55:40.274Z,8.18
2022-11-05T22:00:42.241Z,8.80
2022-11-05T22:05:44.581Z,9.82
2022-11-05T22:10:47.737Z,9.05
2022-11-05T22:15:56.635Z,11.93
2022-11-05T22:20:58.459Z,8.85
2022-11-05T22:26:01.793Z,8.13
2022-11-05T22:31:03.762Z,8.48
2022-11-05T22:36:06.048Z,6.88
2022-11-05T22:41:13.357Z,5.53
2022-11-05T22:46:18.265Z,5.85
2022-11-05T22:56:26.692Z,5.97
2022-11-05T23:01:29.083Z,5.75
2022-11-05T23:06:51.241Z,5.15
2022-11-05T23:11:53.918Z,5.00
2022-11-05T23:17:14.409Z,3.97
2022-11-05T23:22:39.362Z,4.30
2022-11-05T23:27:41.704Z,3.90
2022-11-05T23:32:43.992Z,4.28
2022-11-05T23:38:04.709Z,4.22
2022-11-05T23:43:25.586Z,4.13
2022-11-05T23:48:36.991Z,4.20
2022-11-05T23:58:43.001Z,4.00
